createdAt,value
2023-05-05T00:03:34.987Z,13.0
2023-05-05T00:08:34.876Z,13.1
2023-05-05T00:13:34.893Z,12.9
2023-05-05T00:18:34.900Z,12.8
2023-05-05T00:23:34.920Z,12.8
2023-05-05T00:28:34.933Z,12.8
2023-05-05T00:38:34.906Z,12.8
2023-05-05T00:43:34.907Z,12.8
2023-05-05T00:48:34.915Z,12.8
2023-05-05T00:53:34.944Z,12.8
2023-05-05T00:58:34.947Z,12.8
2023-05-05T01:01:39.332Z,12.8
2023-05-05T01:03:35.055Z,12.9
2023-05-05T01:08:34.917Z,12.9
2023-05-05T01:13:34.927Z,12.8
2023-05-05T01:18:34.927Z,12.8
2023-05-05T01:23:34.977Z,12.7
2023-05-05T01:28:34.972Z,12.8
2023-05-05T01:33:34.932Z,12.7
2023-05-05T01:38:34.949Z,12.7
2023-05-05T01:43:34.964Z,12.6
2023-05-05T01:48:34.961Z,12.7
2023-05-05T01:53:34.964Z,12.7
2023-05-05T01:58:34.969Z,12.8
2023-05-05T02:03:35.026Z,12.9
2023-05-05T02:08:34.957Z,13.0
2023-05-05T02:13:34.986Z,13.2
2023-05-05T02:18:34.975Z,13.5
2023-05-05T02:23:34.988Z,13.8
2023-05-05T02:28:34.996Z,13.9
2023-05-05T02:33:34.986Z,14.0
2023-05-05T02:38:34.987Z,14.1
2023-05-05T02:43:34.984Z,14.2
2023-05-05T02:48:34.994Z,14.2
2023-05-05T02:53:35.001Z,14.2
2023-05-05T02:58:35.015Z,14.0
2023-05-05T03:03:35.064Z,13.7
2023-05-05T03:08:35.000Z,13.6
2023-05-05T03:13:34.996Z,13.3
2023-05-05T03:18:35.005Z,13.3
2023-05-05T03:23:35.036Z,13.2
2023-05-05T03:28:35.023Z,13.1
2023-05-05T03:33:35.012Z,13.1
2023-05-05T03:38:35.027Z,13.2
2023-05-05T03:43:35.015Z,13.1
2023-05-05T03:48:35.018Z,13.2
2023-05-05T03:53:35.041Z,13.2
2023-05-05T03:58:35.068Z,13.1
2023-05-05T04:03:35.125Z,13.0
2023-05-05T04:08:35.048Z,13.0
2023-05-05T04:13:35.041Z,12.8
2023-05-05T04:18:35.045Z,12.7
2023-05-05T04:23:35.071Z,12.8
2023-05-05T04:28:35.085Z,12.8
2023-05-05T04:33:35.050Z,12.9
2023-05-05T04:38:35.064Z,12.9
2023-05-05T04:43:35.065Z,12.9
2023-05-05T04:48:35.064Z,13.0
2023-05-05T04:53:35.100Z,12.9
2023-05-05T04:58:35.095Z,12.9
2023-05-05T05:03:35.209Z,12.9
2023-05-05T05:08:35.067Z,12.9
2023-05-05T05:13:35.086Z,13.0
2023-05-05T05:18:35.107Z,13.0
2023-05-05T05:23:35.102Z,13.1
2023-05-05T05:28:35.119Z,13.2
2023-05-05T05:33:35.089Z,13.3
2023-05-05T05:38:35.086Z,13.4
2023-05-05T05:43:35.107Z,13.4
2023-05-05T05:48:35.103Z,13.5
2023-05-05T05:53:35.125Z,13.6
2023-05-05T05:58:35.127Z,13.7
2023-05-05T06:03:35.288Z,13.8
2023-05-05T06:08:35.107Z,13.9
2023-05-05T06:13:35.107Z,14.1
2023-05-05T06:18:35.110Z,14.3
2023-05-05T06:23:35.126Z,14.4
2023-05-05T06:28:35.145Z,14.6
2023-05-05T06:33:35.127Z,14.7
2023-05-05T06:38:35.138Z,14.8
2023-05-05T06:43:35.126Z,15.0
2023-05-05T06:48:35.129Z,15.0
2023-05-05T06:53:35.156Z,15.1
2023-05-05T06:58:35.163Z,15.2
2023-05-05T07:03:35.194Z,15.3
2023-05-05T07:08:35.155Z,15.4
2023-05-05T07:13:35.147Z,15.6
2023-05-05T07:18:35.157Z,16.1
2023-05-05T07:23:35.171Z,16.4
2023-05-05T07:28:35.220Z,16.5
2023-05-05T07:33:35.163Z,16.7
2023-05-05T07:38:35.169Z,16.9
2023-05-05T07:43:35.193Z,17.2
2023-05-05T07:48:35.172Z,17.4
2023-05-05T07:53:35.196Z,17.5
2023-05-05T07:58:35.203Z,17.6
2023-05-05T08:03:35.384Z,17.9
2023-05-05T08:08:35.178Z,18.1
2023-05-05T08:13:35.189Z,18.3
2023-05-05T08:18:35.195Z,18.5
2023-05-05T08:23:35.216Z,18.8
2023-05-05T08:28:27.156Z,18.8
2023-05-05T08:28:35.131Z,19.1
2023-05-05T08:33:35.226Z,19.5
2023-05-05T08:38:35.204Z,20.0
2023-05-05T08:43:35.211Z,20.1
2023-05-05T08:48:35.205Z,20.2
2023-05-05T08:53:35.234Z,20.0
2023-05-05T08:58:35.212Z,20.8
2023-05-05T09:03:35.317Z,23.2
2023-05-05T09:08:35.217Z,22.4
2023-05-05T09:13:35.220Z,21.8
2023-05-05T09:18:35.215Z,21.3
2023-05-05T09:23:35.244Z,21.0
2023-05-05T09:28:35.269Z,21.3
2023-05-05T09:33:35.265Z,22.2
2023-05-05T09:38:35.244Z,22.1
2023-05-05T09:43:35.241Z,21.3
2023-05-05T09:48:35.280Z,21.8
2023-05-05T09:53:35.267Z,22.0
2023-05-05T09:58:35.258Z,22.1
2023-05-05T10:08:35.293Z,22.1
2023-05-05T10:13:35.258Z,21.7
2023-05-05T10:18:35.314Z,21.3
2023-05-05T10:23:35.276Z,21.5
2023-05-05T10:28:35.279Z,21.2
2023-05-05T10:33:35.370Z,20.8
2023-05-05T10:38:35.314Z,20.5
2023-05-05T10:43:35.289Z,20.6
2023-05-05T10:48:35.325Z,21.3
2023-05-05T10:53:35.316Z,21.5
2023-05-05T10:58:43.679Z,21.6
2023-05-05T11:03:35.347Z,22.0
2023-05-05T11:08:35.372Z,22.4
2023-05-05T11:13:35.312Z,22.7
2023-05-05T11:18:35.300Z,23.1
2023-05-05T11:23:35.333Z,22.7
2023-05-05T11:28:35.327Z,21.2
2023-05-05T11:33:35.319Z,18.6
2023-05-05T11:38:35.350Z,18.0
2023-05-05T11:43:35.322Z,17.7
2023-05-05T11:48:35.320Z,17.1
2023-05-05T11:53:35.357Z,16.5
2023-05-05T11:58:35.338Z,16.1
2023-05-05T12:03:35.475Z,15.7
2023-05-05T12:08:35.357Z,15.1
2023-05-05T12:13:35.361Z,14.8
2023-05-05T12:18:35.336Z,14.6
2023-05-05T12:23:35.356Z,14.8
2023-05-05T12:28:35.349Z,14.7
2023-05-05T12:33:35.349Z,14.8
2023-05-05T12:38:35.389Z,14.6
2023-05-05T12:43:35.381Z,14.5
2023-05-05T12:48:35.396Z,14.4
2023-05-05T12:53:35.386Z,14.3
2023-05-05T12:58:35.375Z,14.2
2023-05-05T13:03:35.409Z,14.1
2023-05-05T13:08:35.421Z,13.9
2023-05-05T13:13:35.382Z,13.8
2023-05-05T13:18:35.393Z,13.8
2023-05-05T13:23:35.406Z,13.9
2023-05-05T13:28:35.399Z,13.9
2023-05-05T13:33:35.432Z,13.8
2023-05-05T13:38:35.420Z,13.6
2023-05-05T13:43:35.393Z,13.9
2023-05-05T13:48:35.406Z,13.8
2023-05-05T13:53:35.421Z,13.8
2023-05-05T13:58:37.107Z,13.9
2023-05-05T14:03:35.416Z,14.2
2023-05-05T14:08:35.441Z,14.6
2023-05-05T14:13:35.409Z,15.0
2023-05-05T14:18:35.416Z,15.2
2023-05-05T14:23:35.457Z,15.4
2023-05-05T14:28:35.421Z,15.8
2023-05-05T14:33:35.434Z,15.9
2023-05-05T14:38:35.515Z,15.9
2023-05-05T14:43:35.434Z,15.6
2023-05-05T14:48:35.442Z,15.4
2023-05-05T14:53:35.485Z,15.1
2023-05-05T14:58:35.449Z,14.8
2023-05-05T15:03:35.592Z,14.7
2023-05-05T15:08:35.483Z,15.6
2023-05-05T15:13:35.459Z,16.1
2023-05-05T15:18:35.463Z,15.7
2023-05-05T15:23:35.485Z,15.8
2023-05-05T15:28:35.455Z,16.1
2023-05-05T15:33:35.464Z,15.8
2023-05-05T15:38:35.500Z,15.1
2023-05-05T15:43:35.462Z,15.7
2023-05-05T15:48:35.470Z,15.4
2023-05-05T15:53:35.488Z,15.4
2023-05-05T15:58:35.477Z,15.3
2023-05-05T16:03:35.494Z,15.3
2023-05-05T16:08:35.529Z,15.2
2023-05-05T16:13:35.494Z,15.1
2023-05-05T16:18:35.505Z,15.1
2023-05-05T16:23:35.519Z,15.1
2023-05-05T16:28:35.517Z,15.1
2023-05-05T16:33:35.498Z,15.0
2023-05-05T16:38:35.536Z,14.8
2023-05-05T16:43:35.510Z,14.8
2023-05-05T16:53:35.541Z,14.8
2023-05-05T16:58:35.516Z,14.9
2023-05-05T17:03:35.532Z,14.7
2023-05-05T17:08:35.552Z,14.6
2023-05-05T17:13:35.529Z,14.7
2023-05-05T17:18:35.535Z,14.8
2023-05-05T17:23:35.543Z,14.8
2023-05-05T17:28:35.539Z,14.7
2023-05-05T17:33:35.541Z,14.6
2023-05-05T17:38:35.558Z,14.4
2023-05-05T17:43:35.544Z,14.4
2023-05-05T17:48:35.608Z,14.4
2023-05-05T17:53:35.571Z,14.4
2023-05-05T17:58:35.561Z,14.5
2023-05-05T18:03:36.733Z,14.5
2023-05-05T18:08:35.578Z,14.5
2023-05-05T18:13:35.564Z,14.3
2023-05-05T18:23:35.606Z,14.1
2023-05-05T18:28:35.573Z,14.0
2023-05-05T18:33:35.570Z,14.2
2023-05-05T18:38:35.611Z,14.2
2023-05-05T18:43:35.599Z,14.1
2023-05-05T18:48:35.633Z,14.0
2023-05-05T18:53:35.613Z,13.8
2023-05-05T18:58:35.587Z,13.7
2023-05-05T19:03:35.610Z,13.6
2023-05-05T19:08:35.618Z,13.5
2023-05-05T19:13:35.616Z,13.1
2023-05-05T19:18:35.620Z,12.8
2023-05-05T19:23:35.617Z,12.8
2023-05-05T19:28:35.611Z,12.9
2023-05-05T19:33:35.601Z,12.7
2023-05-05T19:38:35.638Z,12.4
2023-05-05T19:43:35.627Z,12.4
2023-05-05T19:48:35.619Z,12.2
2023-05-05T19:53:35.642Z,12.1
2023-05-05T19:58:35.627Z,11.9
2023-05-05T20:03:35.758Z,11.9
2023-05-05T20:08:35.657Z,11.9
2023-05-05T20:13:35.648Z,11.8
2023-05-05T20:18:35.638Z,11.6
2023-05-05T20:23:35.678Z,11.5
2023-05-05T20:28:35.650Z,11.4
2023-05-05T20:33:35.651Z,11.4
2023-05-05T20:38:35.689Z,11.4
2023-05-05T20:43:35.655Z,11.6
2023-05-05T20:48:36.940Z,11.4
2023-05-05T20:53:35.685Z,11.4
2023-05-05T20:58:35.686Z,11.3
2023-05-05T21:03:35.668Z,11.2
2023-05-05T21:08:35.698Z,11.3
2023-05-05T21:13:35.667Z,11.4
2023-05-05T21:18:35.676Z,11.4
2023-05-05T21:23:35.700Z,11.2
2023-05-05T21:28:35.675Z,11.3
2023-05-05T21:33:35.677Z,11.2
2023-05-05T21:43:35.723Z,11.1
2023-05-05T21:48:35.702Z,10.9
2023-05-05T21:53:35.703Z,10.8
2023-05-05T21:58:35.704Z,10.8
2023-05-05T22:03:35.889Z,10.7
2023-05-05T22:08:35.701Z,10.7
2023-05-05T22:13:35.731Z,10.7
2023-05-05T22:23:35.786Z,10.6
2023-05-05T22:28:35.722Z,10.5
2023-05-05T22:33:35.721Z,10.4
2023-05-05T22:38:35.723Z,10.4
2023-05-05T22:43:35.766Z,10.3
2023-05-05T22:48:35.733Z,10.4
2023-05-05T22:53:35.736Z,10.4
2023-05-05T22:58:35.724Z,10.3
2023-05-05T23:03:35.754Z,10.2
2023-05-05T23:08:35.752Z,10.3
2023-05-05T23:13:35.766Z,10.4
2023-05-05T23:18:35.750Z,10.5
2023-05-05T23:23:35.854Z,10.7
2023-05-05T23:28:35.771Z,10.7
2023-05-05T23:33:35.764Z,10.6
2023-05-05T23:38:35.760Z,10.6
2023-05-05T23:43:35.814Z,10.6
2023-05-05T23:48:35.770Z,10.5
2023-05-05T23:53:35.786Z,10.5
2023-05-05T23:58:35.773Z,10.4
